createdAt,value
2023-03-06T04:42:04.560Z,1.73
2023-03-06T04:45:08.550Z,0.43
2023-03-06T04:48:15.093Z,1.58
2023-03-06T04:51:17.907Z,1.20
2023-03-06T04:54:23.559Z,1.55
2023-03-06T04:57:26.596Z,1.90
2023-03-06T05:00:31.514Z,1.15
2023-03-06T05:03:34.618Z,2.12
2023-03-06T05:06:37.160Z,1.35
2023-03-06T05:09:40.018Z,1.67
2023-03-06T05:12:43.112Z,2.25
2023-03-06T05:15:46.004Z,1.20
2023-03-06T05:18:50.781Z,1.05
2023-03-06T05:21:53.876Z,1.85
2023-03-06T05:24:56.499Z,1.37
2023-03-06T05:27:59.307Z,1.50
2023-03-06T05:31:03.457Z,2.15
2023-03-06T05:34:06.481Z,1.50
2023-03-06T05:37:09.121Z,2.17
2023-03-06T05:40:12.792Z,1.27
2023-03-06T05:43:15.592Z,2.28
2023-03-06T05:46:18.615Z,1.73
2023-03-06T05:49:21.626Z,1.52
2023-03-06T05:52:24.849Z,2.12
2023-03-06T05:55:27.609Z,2.10
2023-03-06T05:58:31.854Z,1.55
2023-03-06T06:01:34.617Z,2.33
2023-03-06T06:04:37.480Z,1.60
2023-03-06T06:07:40.810Z,2.58
2023-03-06T06:10:43.746Z,1.42
2023-03-06T06:13:48.009Z,2.20
2023-03-06T06:16:51.129Z,1.50
2023-03-06T06:19:53.729Z,2.15
2023-03-06T06:22:56.932Z,1.83
2023-03-06T06:26:04.597Z,1.60
2023-03-06T06:29:08.238Z,1.80
2023-03-06T06:32:11.458Z,1.77
2023-03-06T06:35:14.424Z,1.98
2023-03-06T06:38:17.549Z,2.10
2023-03-06T06:44:45.308Z,1.98
2023-03-06T06:47:50.267Z,2.65
2023-03-06T06:51:00.140Z,2.08
2023-03-06T06:54:03.570Z,1.92
2023-03-06T06:57:06.234Z,1.65
2023-03-06T07:00:12.824Z,2.72
2023-03-06T07:03:15.697Z,2.15
2023-03-06T07:06:22.186Z,2.45
2023-03-06T07:09:24.875Z,2.22
2023-03-06T07:12:27.739Z,2.80
2023-03-06T07:15:30.824Z,2.10
2023-03-06T07:18:33.847Z,2.45
2023-03-06T07:21:36.795Z,2.20
2023-03-06T07:24:39.669Z,2.62
2023-03-06T07:27:42.319Z,3.15
2023-03-06T07:30:45.230Z,2.55
2023-03-06T07:33:52.418Z,2.22
2023-03-06T07:36:56.253Z,2.75
2023-03-06T07:39:59.089Z,1.70
2023-03-06T07:43:17.146Z,2.65
2023-03-06T07:46:22.647Z,2.80
2023-03-06T07:52:29.778Z,2.22
2023-03-06T07:55:34.793Z,2.85
2023-03-06T07:58:40.019Z,3.58
2023-03-06T08:01:42.965Z,3.45
2023-03-06T08:07:54.053Z,3.25
2023-03-06T08:10:56.867Z,2.60
2023-03-06T08:14:00.422Z,2.95
2023-03-06T08:17:03.414Z,3.60
2023-03-06T08:20:07.269Z,2.95
2023-03-06T08:23:10.897Z,2.35
2023-03-06T08:26:25.513Z,2.45
2023-03-06T08:29:28.353Z,3.28
2023-03-06T08:32:30.964Z,3.62
2023-03-06T08:35:33.954Z,2.35
2023-03-06T08:38:36.639Z,3.03
2023-03-06T08:41:40.604Z,3.20
2023-03-06T08:44:43.238Z,3.25
2023-03-06T08:47:46.210Z,2.65
2023-03-06T08:50:49.651Z,3.12
2023-03-06T08:53:52.874Z,3.67
2023-03-06T08:59:58.565Z,3.70
2023-03-06T09:03:01.198Z,3.53
2023-03-06T09:06:04.151Z,2.87
2023-03-06T09:09:09.322Z,3.90
2023-03-06T09:12:12.461Z,4.10
2023-03-06T09:15:16.279Z,3.87
2023-03-06T09:18:19.383Z,4.18
2023-03-06T09:21:23.011Z,3.37
2023-03-06T09:24:26.025Z,3.67
2023-03-06T09:27:28.750Z,3.53
2023-03-06T09:30:31.745Z,3.67
2023-03-06T09:33:34.722Z,4.30
2023-03-06T09:36:49.509Z,3.65
2023-03-06T09:39:56.584Z,3.55
2023-03-06T09:42:59.743Z,3.90
2023-03-06T09:46:21.295Z,3.90
2023-03-06T09:49:29.270Z,4.62
2023-03-06T09:52:41.274Z,3.15
2023-03-06T09:55:51.212Z,4.65
2023-03-06T09:58:59.709Z,3.87
2023-03-06T10:02:16.044Z,4.28
2023-03-06T10:05:26.255Z,3.67
2023-03-06T10:08:31.902Z,4.05
2023-03-06T10:11:41.010Z,3.37
2023-03-06T10:14:48.910Z,4.10
2023-03-06T10:17:53.192Z,3.55
2023-03-06T10:21:13.410Z,4.55
2023-03-06T10:25:18.012Z,5.18
2023-03-06T10:28:34.432Z,3.67
2023-03-06T10:31:49.252Z,3.92
2023-03-06T10:34:53.688Z,4.37
2023-03-06T10:38:15.845Z,3.67
2023-03-06T10:41:24.286Z,4.30
2023-03-06T10:44:27.183Z,3.90
2023-03-06T10:47:35.343Z,4.18
2023-03-06T10:50:39.136Z,5.43
2023-03-06T10:53:53.248Z,4.32
2023-03-06T10:56:56.254Z,4.03
2023-03-06T11:00:26.763Z,3.83
2023-03-06T11:03:31.372Z,4.43
2023-03-06T11:09:42.854Z,4.18
2023-03-06T11:13:03.115Z,4.80
2023-03-06T11:16:15.118Z,4.20
2023-03-06T11:19:29.209Z,4.03
2023-03-06T11:22:32.660Z,5.15
2023-03-06T11:25:42.724Z,4.18
2023-03-06T11:29:21.144Z,5.25
2023-03-06T11:32:31.273Z,4.12
2023-03-06T11:35:50.857Z,3.95
2023-03-06T11:38:54.327Z,4.85
2023-03-06T11:42:24.732Z,4.87
2023-03-06T11:45:42.422Z,4.55
2023-03-06T11:49:30.958Z,4.75
2023-03-06T11:53:03.608Z,5.47
2023-03-06T11:56:18.935Z,3.70
2023-03-06T11:59:53.084Z,4.75
2023-03-06T12:03:16.156Z,5.00
2023-03-06T12:06:34.185Z,5.00
2023-03-06T12:13:27.824Z,4.37
2023-03-06T12:16:53.219Z,4.72
2023-03-06T12:20:16.530Z,5.78
2023-03-06T12:23:40.707Z,4.82
2023-03-06T12:26:56.010Z,4.72
2023-03-06T12:30:19.384Z,4.35
2023-03-06T12:33:38.109Z,4.55
2023-03-06T12:36:59.422Z,4.47
2023-03-06T12:40:27.116Z,4.60
2023-03-06T12:43:48.491Z,4.50
2023-03-06T12:47:02.032Z,5.20
2023-03-06T12:50:33.582Z,4.68
2023-03-06T12:53:37.975Z,4.87
2023-03-06T12:56:42.295Z,3.78
2023-03-06T12:59:50.056Z,4.65
2023-03-06T13:03:01.762Z,5.22
2023-03-06T13:06:32.437Z,4.90
2023-03-06T13:09:58.286Z,5.57
2023-03-06T13:13:33.875Z,5.32
2023-03-06T13:16:36.855Z,4.40
2023-03-06T13:22:44.950Z,4.75
2023-03-06T13:25:50.371Z,4.97
2023-03-06T13:28:55.018Z,5.57
2023-03-06T13:32:01.173Z,4.78
2023-03-06T13:35:29.803Z,5.22
2023-03-06T13:38:36.556Z,4.60
2023-03-06T13:41:42.094Z,4.72
2023-03-06T13:44:46.072Z,4.78
2023-03-06T13:48:10.991Z,5.25
2023-03-06T13:51:16.694Z,5.22
2023-03-06T13:54:24.833Z,6.32
2023-03-06T13:58:08.717Z,5.47
2023-03-06T14:01:26.658Z,5.47
2023-03-06T14:04:34.386Z,5.00
2023-03-06T14:07:43.293Z,4.82
2023-03-06T14:10:48.401Z,6.03
2023-03-06T14:13:54.393Z,4.97
2023-03-06T14:16:58.627Z,5.80
2023-03-06T14:20:12.798Z,5.43
2023-03-06T14:23:21.487Z,5.40
2023-03-06T14:26:26.147Z,5.22
2023-03-06T14:29:30.226Z,5.43
2023-03-06T14:32:32.917Z,5.57
2023-03-06T14:35:36.596Z,5.28
2023-03-06T14:38:48.457Z,5.22
2023-03-06T14:41:51.392Z,5.28
2023-03-06T14:45:03.180Z,4.87
2023-03-06T14:48:06.588Z,5.25
2023-03-06T14:54:31.522Z,5.07
2023-03-06T14:57:34.417Z,5.40
2023-03-06T15:03:51.571Z,5.53
2023-03-06T15:06:56.301Z,5.47
2023-03-06T15:10:00.716Z,5.80
2023-03-06T15:13:37.135Z,6.03
2023-03-06T15:16:39.839Z,5.10
2023-03-06T15:19:44.266Z,5.95
2023-03-06T15:22:50.808Z,5.43
2023-03-06T15:25:59.469Z,4.30
2023-03-06T15:29:11.167Z,4.82
2023-03-06T15:32:33.479Z,5.12
2023-03-06T15:35:38.083Z,4.95
2023-03-06T15:39:01.315Z,4.70
2023-03-06T15:42:25.021Z,5.03
2023-03-06T15:45:29.948Z,5.15
2023-03-06T15:48:35.326Z,5.12
2023-03-06T15:51:38.357Z,4.43
2023-03-06T15:54:41.032Z,4.55
2023-03-06T15:57:54.221Z,4.25
2023-03-06T16:00:57.274Z,5.22
2023-03-06T16:04:00.510Z,4.12
2023-03-06T16:07:03.216Z,3.58
2023-03-06T16:10:06.740Z,3.42
2023-03-06T16:16:34.187Z,3.50
2023-03-06T16:19:36.868Z,4.30
2023-03-06T16:25:45.868Z,4.47
2023-03-06T16:28:50.368Z,3.37
2023-03-06T16:31:55.463Z,4.40
2023-03-06T16:34:58.402Z,3.87
2023-03-06T16:38:01.013Z,3.95
2023-03-06T16:41:04.153Z,4.03
2023-03-06T16:44:07.886Z,4.28
